createdAt,value
2019-02-16T00:00:47.065Z,19.75
2019-02-16T00:01:47.025Z,19.85
2019-02-16T00:02:47.036Z,19.77
2019-02-16T00:03:46.941Z,19.74
2019-02-16T00:04:47.083Z,19.75
2019-02-16T00:05:46.956Z,19.71
2019-02-16T00:06:46.975Z,19.71
2019-02-16T00:07:47.107Z,19.79
2019-02-16T00:08:46.991Z,19.74
2019-02-16T00:09:47.224Z,19.79
2019-02-16T00:10:47.031Z,19.66
2019-02-16T00:11:47.164Z,19.77
2019-02-16T00:12:47.052Z,19.67
2019-02-16T00:13:47.175Z,19.66
2019-02-16T00:14:47.290Z,19.62
2019-02-16T00:15:47.225Z,19.74
2019-02-16T00:16:47.228Z,19.71
2019-02-16T00:17:47.176Z,19.71
2019-02-16T00:18:47.134Z,19.70
2019-02-16T00:19:47.315Z,19.70
2019-02-16T00:20:47.278Z,19.66
2019-02-16T00:21:47.178Z,19.75
2019-02-16T00:22:47.197Z,19.67
2019-02-16T00:23:47.221Z,19.66
2019-02-16T00:24:47.482Z,19.60
2019-02-16T00:25:47.219Z,19.67
2019-02-16T00:26:47.372Z,19.64
2019-02-16T00:27:47.257Z,19.55
2019-02-16T00:28:47.387Z,19.45
2019-02-16T00:29:47.509Z,19.49
2019-02-16T00:30:47.294Z,19.48
2019-02-16T00:31:47.308Z,19.57
2019-02-16T00:32:47.448Z,19.47
2019-02-16T00:33:47.341Z,19.55
2019-02-16T00:34:47.453Z,19.59
2019-02-16T00:35:47.364Z,19.52
2019-02-16T00:36:47.369Z,19.57
2019-02-16T00:37:47.400Z,19.59
2019-02-16T00:38:47.414Z,19.66
2019-02-16T00:39:47.507Z,19.64
2019-02-16T00:40:47.498Z,19.71
2019-02-16T00:41:47.450Z,19.62
2019-02-16T00:42:47.462Z,19.60
2019-02-16T00:43:47.589Z,19.57
2019-02-16T00:44:47.600Z,19.63
2019-02-16T00:45:47.495Z,19.60
2019-02-16T00:46:47.644Z,19.59
2019-02-16T00:47:47.648Z,19.64
2019-02-16T00:48:47.670Z,19.52
2019-02-16T00:49:47.656Z,19.53
2019-02-16T00:50:47.568Z,19.56
2019-02-16T00:51:47.586Z,19.57
2019-02-16T00:52:47.720Z,19.48
2019-02-16T00:53:47.741Z,19.52
2019-02-16T00:54:48.078Z,19.56
2019-02-16T00:55:47.766Z,19.62
2019-02-16T00:56:47.655Z,19.56
2019-02-16T00:57:48.054Z,19.63
2019-02-16T00:58:48.057Z,19.57
2019-02-16T00:59:48.087Z,19.60
2019-02-16T01:00:48.087Z,19.62
2019-02-16T01:01:47.729Z,19.59
2019-02-16T01:02:47.864Z,19.60
2019-02-16T01:03:48.083Z,19.64
2019-02-16T01:04:47.767Z,19.67
2019-02-16T01:05:48.047Z,19.66
2019-02-16T01:06:48.071Z,19.60
2019-02-16T01:07:48.072Z,19.62
2019-02-16T01:08:48.058Z,19.56
2019-02-16T01:09:47.956Z,19.67
2019-02-16T01:10:48.082Z,19.64
2019-02-16T01:11:47.987Z,19.63
2019-02-16T01:12:47.876Z,19.70
2019-02-16T01:13:48.004Z,19.70
2019-02-16T01:14:48.076Z,19.66
2019-02-16T01:15:47.964Z,19.70
2019-02-16T01:16:48.117Z,19.79
2019-02-16T01:17:48.091Z,19.75
2019-02-16T01:18:47.961Z,19.79
2019-02-16T01:19:48.095Z,19.71
2019-02-16T01:20:48.198Z,19.74
2019-02-16T01:21:48.122Z,19.74
2019-02-16T01:22:48.132Z,19.85
2019-02-16T01:23:48.148Z,19.96
2019-02-16T01:24:48.164Z,19.94
2019-02-16T01:25:48.170Z,19.97
2019-02-16T01:26:48.195Z,19.99
2019-02-16T01:27:48.209Z,19.92
2019-02-16T01:28:48.216Z,19.96
2019-02-16T01:29:48.113Z,19.93
2019-02-16T01:30:48.236Z,19.96
2019-02-16T01:31:48.138Z,19.93
2019-02-16T01:32:48.292Z,19.93
2019-02-16T01:33:48.298Z,20.00
2019-02-16T01:34:48.306Z,19.93
2019-02-16T01:35:48.294Z,19.94
2019-02-16T01:36:48.335Z,19.79
2019-02-16T01:37:48.225Z,19.81
2019-02-16T01:38:48.365Z,19.82
2019-02-16T01:39:48.233Z,19.89
2019-02-16T01:40:48.538Z,19.74
2019-02-16T01:41:48.300Z,19.79
2019-02-16T01:42:48.421Z,19.79
2019-02-16T01:43:48.504Z,19.81
2019-02-16T01:44:48.335Z,19.81
2019-02-16T01:45:48.562Z,19.84
2019-02-16T01:46:48.366Z,19.89
2019-02-16T01:47:48.354Z,19.85
2019-02-16T01:48:48.378Z,19.81
2019-02-16T01:49:48.432Z,19.85
2019-02-16T01:50:48.667Z,19.85
2019-02-16T01:51:48.435Z,19.87
2019-02-16T01:52:48.455Z,19.82
2019-02-16T01:53:48.445Z,19.82
2019-02-16T01:54:48.573Z,19.82
2019-02-16T01:55:48.623Z,19.81
2019-02-16T01:56:48.501Z,19.72
2019-02-16T01:57:48.510Z,19.79
2019-02-16T01:58:48.629Z,19.74
2019-02-16T01:59:48.655Z,19.74
2019-02-16T02:00:48.656Z,19.75
2019-02-16T02:01:48.563Z,19.77
2019-02-16T02:02:48.577Z,19.81
2019-02-16T02:03:48.579Z,19.81
2019-02-16T02:04:48.602Z,19.78
2019-02-16T02:05:48.883Z,19.78
2019-02-16T02:06:48.624Z,19.77
2019-02-16T02:07:48.768Z,19.84
2019-02-16T02:08:48.664Z,19.77
2019-02-16T02:09:48.783Z,19.84
2019-02-16T02:10:48.963Z,19.85
2019-02-16T02:11:48.700Z,19.89
2019-02-16T02:12:48.741Z,19.87
2019-02-16T02:13:48.729Z,19.89
2019-02-16T02:14:48.749Z,19.85
2019-02-16T02:15:48.849Z,19.85
2019-02-16T02:16:48.776Z,19.90
2019-02-16T02:17:48.813Z,19.90
2019-02-16T02:18:48.789Z,19.94
2019-02-16T02:19:48.802Z,20.03
2019-02-16T02:20:48.970Z,20.00
2019-02-16T02:21:48.965Z,20.00
2019-02-16T02:22:48.845Z,19.93
2019-02-16T02:23:48.880Z,20.02
2019-02-16T02:24:48.993Z,19.99
2019-02-16T02:25:48.968Z,20.02
2019-02-16T02:26:49.037Z,19.93
2019-02-16T02:27:48.967Z,19.92
2019-02-16T02:28:49.051Z,19.93
2019-02-16T02:29:49.077Z,20.03
2019-02-16T02:30:49.129Z,20.04
2019-02-16T02:31:48.976Z,20.04
2019-02-16T02:32:48.998Z,19.99
2019-02-16T02:33:49.032Z,20.07
2019-02-16T02:34:49.014Z,20.04
2019-02-16T02:35:49.186Z,20.02
2019-02-16T02:36:49.163Z,20.00
2019-02-16T02:37:49.189Z,20.02
2019-02-16T02:38:49.086Z,20.02
2019-02-16T02:39:49.329Z,20.03
2019-02-16T02:40:49.193Z,19.97
2019-02-16T02:41:49.233Z,20.00
2019-02-16T02:42:49.135Z,19.93
2019-02-16T02:43:49.142Z,20.03
2019-02-16T02:44:49.281Z,19.93
2019-02-16T02:45:49.389Z,20.00
2019-02-16T02:46:49.187Z,20.04
2019-02-16T02:47:49.215Z,20.03
2019-02-16T02:48:49.220Z,20.03
2019-02-16T02:49:49.341Z,20.00
2019-02-16T02:50:49.515Z,20.03
2019-02-16T02:51:52.302Z,20.02
2019-02-16T02:52:49.399Z,20.02
2019-02-16T02:53:49.404Z,20.04
2019-02-16T02:54:49.302Z,20.02
2019-02-16T02:55:49.589Z,20.07
2019-02-16T02:56:49.623Z,20.04
2019-02-16T02:57:49.336Z,20.03
2019-02-16T02:58:49.358Z,20.00
2019-02-16T02:59:49.498Z,20.07
2019-02-16T03:00:49.596Z,20.07
2019-02-16T03:01:49.392Z,20.14
2019-02-16T03:02:49.548Z,20.02
2019-02-16T03:03:49.551Z,20.10
2019-02-16T03:04:49.565Z,20.07
2019-02-16T03:05:49.677Z,20.02
2019-02-16T03:06:49.465Z,20.02
2019-02-16T03:07:49.497Z,20.00
2019-02-16T03:08:49.625Z,19.97
2019-02-16T03:09:49.638Z,20.02
2019-02-16T03:10:49.754Z,20.08
2019-02-16T03:11:49.546Z,20.03
2019-02-16T03:12:49.682Z,20.07
2019-02-16T03:13:49.695Z,20.00
2019-02-16T03:14:49.576Z,20.02
2019-02-16T03:15:49.717Z,20.10
2019-02-16T03:16:49.606Z,19.99
2019-02-16T03:17:49.737Z,20.03
2019-02-16T03:18:49.636Z,20.07
2019-02-16T03:19:49.768Z,20.12
2019-02-16T03:20:49.820Z,20.03
2019-02-16T03:21:49.678Z,20.03
2019-02-16T03:22:49.699Z,20.12
2019-02-16T03:23:49.691Z,20.10
2019-02-16T03:24:49.726Z,20.11
2019-02-16T03:25:49.939Z,20.14
2019-02-16T03:26:49.881Z,20.10
2019-02-16T03:27:49.823Z,20.12
2019-02-16T03:28:49.778Z,20.07
2019-02-16T03:29:49.915Z,20.10
2019-02-16T03:30:49.811Z,20.03
2019-02-16T03:31:49.928Z,20.14
2019-02-16T03:32:49.882Z,20.14
2019-02-16T03:33:49.851Z,20.11
2019-02-16T03:34:49.985Z,20.04
2019-02-16T03:35:49.884Z,20.12
2019-02-16T03:36:50.072Z,20.08
2019-02-16T03:37:50.030Z,20.15
2019-02-16T03:38:50.035Z,20.03
2019-02-16T03:39:50.164Z,20.15
2019-02-16T03:40:49.954Z,20.02
2019-02-16T03:41:49.964Z,20.03
2019-02-16T03:42:49.993Z,20.04
2019-02-16T03:43:50.108Z,20.10
2019-02-16T03:44:50.177Z,20.14
2019-02-16T03:45:50.029Z,20.08
2019-02-16T03:46:50.091Z,20.18
2019-02-16T03:47:50.181Z,20.10
2019-02-16T03:48:50.183Z,20.07
2019-02-16T03:49:50.122Z,20.10
2019-02-16T03:50:50.102Z,20.04
2019-02-16T03:51:50.111Z,20.11
2019-02-16T03:52:50.252Z,20.14
2019-02-16T03:53:50.264Z,20.17
2019-02-16T03:54:50.375Z,20.14
2019-02-16T03:55:50.147Z,20.18
2019-02-16T03:56:50.306Z,20.17
2019-02-16T03:57:50.195Z,20.11
2019-02-16T03:58:50.203Z,20.22
2019-02-16T03:59:50.452Z,20.17
2019-02-16T04:00:50.360Z,20.18
2019-02-16T04:01:50.252Z,20.18
2019-02-16T04:02:50.270Z,20.18
2019-02-16T04:03:50.408Z,20.18
2019-02-16T04:04:50.382Z,20.26
2019-02-16T04:05:50.305Z,20.26
2019-02-16T04:06:50.446Z,20.21
2019-02-16T04:07:50.331Z,20.22
2019-02-16T04:08:50.461Z,20.30
2019-02-16T04:09:50.479Z,20.24
2019-02-16T04:10:50.640Z,20.26
2019-02-16T04:11:50.511Z,20.17
2019-02-16T04:12:50.406Z,20.12
2019-02-16T04:13:50.417Z,20.17
2019-02-16T04:14:50.559Z,20.26
2019-02-16T04:15:50.549Z,20.17
2019-02-16T04:16:50.461Z,20.19
2019-02-16T04:17:50.592Z,20.17
2019-02-16T04:18:50.484Z,20.14
2019-02-16T04:19:50.504Z,20.18
2019-02-16T04:20:50.749Z,20.12
2019-02-16T04:21:50.667Z,20.21
2019-02-16T04:22:50.560Z,20.15
2019-02-16T04:23:50.561Z,20.18
2019-02-16T04:24:50.576Z,20.18
2019-02-16T04:25:50.806Z,20.18
2019-02-16T04:26:50.726Z,20.18
2019-02-16T04:27:50.745Z,20.19
2019-02-16T04:28:50.637Z,20.15
2019-02-16T04:29:50.645Z,20.17
2019-02-16T04:30:50.829Z,20.14
2019-02-16T04:31:50.807Z,20.21
2019-02-16T04:32:50.692Z,20.15
2019-02-16T04:33:50.719Z,20.18
2019-02-16T04:34:50.837Z,20.18
2019-02-16T04:35:50.832Z,20.24
2019-02-16T04:36:50.875Z,20.26
2019-02-16T04:37:50.890Z,20.32
2019-02-16T04:38:50.905Z,20.27
2019-02-16T04:39:50.911Z,20.27
2019-02-16T04:40:51.039Z,20.26
2019-02-16T04:41:50.820Z,20.29
2019-02-16T04:42:50.837Z,20.29
2019-02-16T04:43:50.858Z,20.36
2019-02-16T04:44:50.981Z,20.29
2019-02-16T04:45:50.982Z,20.29
2019-02-16T04:46:50.895Z,20.40
2019-02-16T04:47:51.019Z,20.34
2019-02-16T04:48:50.922Z,20.42
2019-02-16T04:49:51.064Z,20.36
2019-02-16T04:50:51.097Z,20.37
2019-02-16T04:51:51.078Z,20.37
2019-02-16T04:52:51.020Z,20.39
2019-02-16T04:53:50.995Z,20.37
2019-02-16T04:54:51.007Z,20.42
2019-02-16T04:55:51.301Z,20.29
2019-02-16T04:56:51.171Z,20.39
2019-02-16T04:57:51.061Z,20.44
2019-02-16T04:58:51.076Z,20.40
2019-02-16T04:59:51.206Z,20.42
2019-02-16T05:00:51.322Z,20.30
2019-02-16T05:01:51.232Z,20.27
2019-02-16T05:02:51.260Z,20.37
2019-02-16T05:03:51.158Z,20.36
2019-02-16T05:04:51.269Z,20.40
2019-02-16T05:05:51.274Z,20.29
2019-02-16T05:06:51.175Z,20.32
2019-02-16T05:07:51.227Z,20.27
2019-02-16T05:08:51.326Z,20.26
2019-02-16T05:09:51.242Z,20.27
2019-02-16T05:10:51.505Z,20.32
2019-02-16T05:11:51.249Z,20.39
2019-02-16T05:12:51.275Z,20.26
2019-02-16T05:13:51.281Z,20.30
2019-02-16T05:14:51.293Z,20.29
2019-02-16T05:15:51.536Z,20.27
2019-02-16T05:16:51.439Z,20.32
2019-02-16T05:17:51.339Z,20.21
2019-02-16T05:18:51.365Z,20.33
2019-02-16T05:19:51.366Z,20.42
2019-02-16T05:20:51.380Z,20.29
2019-02-16T05:21:51.663Z,20.32
2019-02-16T05:22:51.408Z,20.33
2019-02-16T05:23:51.436Z,20.30
2019-02-16T05:24:51.437Z,20.26
2019-02-16T05:25:51.576Z,20.44
2019-02-16T05:26:51.589Z,20.27
2019-02-16T05:27:51.602Z,20.24
2019-02-16T05:28:51.627Z,20.39
2019-02-16T05:29:51.518Z,20.29
2019-02-16T05:30:51.532Z,20.26
2019-02-16T05:31:51.718Z,20.33
2019-02-16T05:32:51.672Z,20.34
2019-02-16T05:33:51.577Z,20.32
2019-02-16T05:34:51.699Z,20.37
2019-02-16T05:35:51.598Z,20.32
2019-02-16T05:36:51.718Z,20.36
2019-02-16T05:37:51.639Z,20.29
2019-02-16T05:38:51.624Z,20.32
2019-02-16T05:39:51.783Z,20.33
2019-02-16T05:40:51.794Z,20.22
2019-02-16T05:41:51.785Z,20.24
2019-02-16T05:42:51.701Z,20.33
2019-02-16T05:43:51.714Z,20.29
2019-02-16T05:44:51.726Z,20.22
2019-02-16T05:45:51.865Z,20.24
2019-02-16T05:46:51.875Z,20.27
2019-02-16T05:47:51.903Z,20.15
2019-02-16T05:48:51.833Z,20.15
2019-02-16T05:49:51.926Z,20.17
2019-02-16T05:50:51.940Z,20.26
2019-02-16T05:51:52.046Z,20.30
2019-02-16T05:52:54.424Z,20.29
2019-02-16T05:53:51.868Z,20.29
2019-02-16T05:54:51.998Z,20.30
2019-02-16T05:55:52.001Z,20.27
2019-02-16T05:56:52.124Z,20.30
2019-02-16T05:57:51.918Z,20.26
2019-02-16T05:58:51.935Z,20.32
2019-02-16T05:59:51.949Z,20.27
2019-02-16T06:00:52.087Z,20.26
2019-02-16T06:01:54.250Z,20.32
2019-02-16T06:02:51.991Z,20.27
2019-02-16T06:03:51.998Z,20.33
2019-02-16T06:04:52.020Z,20.33
2019-02-16T06:05:52.150Z,20.34
2019-02-16T06:06:52.167Z,20.29
2019-02-16T06:07:52.067Z,20.36
2019-02-16T06:08:52.189Z,20.27
2019-02-16T06:09:52.201Z,20.42
2019-02-16T06:10:52.221Z,20.36
2019-02-16T06:11:52.385Z,20.42
2019-02-16T06:12:52.138Z,20.40
2019-02-16T06:13:52.144Z,20.40
2019-02-16T06:14:52.163Z,20.44
2019-02-16T06:15:52.305Z,20.44
2019-02-16T06:16:52.404Z,20.29
2019-02-16T06:17:52.331Z,20.39
2019-02-16T06:18:52.268Z,20.39
2019-02-16T06:19:52.230Z,20.37
2019-02-16T06:20:52.282Z,20.37
2019-02-16T06:21:52.541Z,20.46
2019-02-16T06:22:52.400Z,20.37
2019-02-16T06:23:52.296Z,20.36
2019-02-16T06:24:52.302Z,20.27
2019-02-16T06:25:52.325Z,20.27
2019-02-16T06:26:52.493Z,20.30
2019-02-16T06:27:52.471Z,20.36
2019-02-16T06:28:52.361Z,20.33
2019-02-16T06:29:52.404Z,20.26
2019-02-16T06:30:52.404Z,20.26
2019-02-16T06:31:52.629Z,20.29
2019-02-16T06:32:52.416Z,20.29
2019-02-16T06:33:52.439Z,20.36
2019-02-16T06:34:52.448Z,20.34
2019-02-16T06:35:52.581Z,20.32
2019-02-16T06:36:52.544Z,20.34
2019-02-16T06:37:52.504Z,20.36
2019-02-16T06:38:52.519Z,20.34
2019-02-16T06:39:52.638Z,20.40
2019-02-16T06:40:52.536Z,20.36
2019-02-16T06:41:52.649Z,20.42
2019-02-16T06:42:52.563Z,20.37
2019-02-16T06:43:52.585Z,20.39
2019-02-16T06:44:52.712Z,20.27
2019-02-16T06:45:52.736Z,20.18
2019-02-16T06:46:52.838Z,20.24
2019-02-16T06:47:52.764Z,20.29
2019-02-16T06:48:52.659Z,20.30
2019-02-16T06:49:52.795Z,20.36
2019-02-16T06:50:52.798Z,20.33
2019-02-16T06:51:52.922Z,20.34
2019-02-16T06:52:52.834Z,20.27
2019-02-16T06:53:52.727Z,20.27
2019-02-16T06:54:52.868Z,20.24
2019-02-16T06:55:52.775Z,20.22
2019-02-16T06:56:52.863Z,20.26
2019-02-16T06:57:52.903Z,20.30
2019-02-16T06:58:52.910Z,20.29
2019-02-16T06:59:52.819Z,20.21
2019-02-16T07:00:52.955Z,20.33
2019-02-16T07:01:53.061Z,20.29
2019-02-16T07:02:52.983Z,20.24
2019-02-16T07:03:52.993Z,20.32
2019-02-16T07:04:52.999Z,20.27
2019-02-16T07:05:53.013Z,20.26
2019-02-16T07:06:53.177Z,20.29
2019-02-16T07:07:53.038Z,20.27
2019-02-16T07:08:52.942Z,20.29
2019-02-16T07:09:52.963Z,20.32
2019-02-16T07:10:53.094Z,20.24
2019-02-16T07:11:53.251Z,20.27
2019-02-16T07:12:53.120Z,20.33
2019-02-16T07:13:53.126Z,20.29
2019-02-16T07:14:53.156Z,20.29
2019-02-16T07:15:53.051Z,20.29
2019-02-16T07:16:53.106Z,20.29
2019-02-16T07:17:53.189Z,20.27
2019-02-16T07:18:53.083Z,20.27
2019-02-16T07:19:53.087Z,20.32
2019-02-16T07:21:53.116Z,20.33
2019-02-16T07:22:53.152Z,20.39
2019-02-16T07:23:53.130Z,20.36
2019-02-16T07:24:53.296Z,20.30
2019-02-16T07:25:53.291Z,20.22
2019-02-16T07:26:53.206Z,20.33
2019-02-16T07:27:53.207Z,20.32
2019-02-16T07:28:53.342Z,20.29
2019-02-16T07:29:53.247Z,20.30
2019-02-16T07:30:53.416Z,20.34
2019-02-16T07:31:53.265Z,20.34
2019-02-16T07:32:53.304Z,20.37
2019-02-16T07:33:53.314Z,20.32
2019-02-16T07:34:53.319Z,20.29
2019-02-16T07:35:53.590Z,20.39
2019-02-16T07:36:53.466Z,20.39
2019-02-16T07:37:53.478Z,20.36
2019-02-16T07:38:53.390Z,20.33
2019-02-16T07:39:53.506Z,20.34
2019-02-16T07:40:53.662Z,20.34
2019-02-16T07:41:53.419Z,20.32
2019-02-16T07:42:53.551Z,20.32
2019-02-16T07:43:53.556Z,20.27
2019-02-16T07:44:53.452Z,20.32
2019-02-16T07:45:53.619Z,20.29
2019-02-16T07:46:53.608Z,20.27
2019-02-16T07:47:53.607Z,20.27
2019-02-16T07:48:53.547Z,20.29
2019-02-16T07:49:53.523Z,20.24
2019-02-16T07:50:53.681Z,20.37
2019-02-16T07:51:53.673Z,20.39
2019-02-16T07:52:53.687Z,20.32
2019-02-16T07:53:53.692Z,20.37
2019-02-16T07:54:53.703Z,20.42
2019-02-16T07:55:53.881Z,20.42
2019-02-16T07:56:53.625Z,20.36
2019-02-16T07:57:53.634Z,20.40
2019-02-16T07:58:53.759Z,20.34
2019-02-16T07:59:53.659Z,20.34
2019-02-16T08:00:53.670Z,20.44
2019-02-16T08:01:53.796Z,20.39
2019-02-16T08:02:53.822Z,20.42
2019-02-16T08:03:53.713Z,20.46
2019-02-16T08:04:53.733Z,20.34
2019-02-16T08:05:53.757Z,20.36
2019-02-16T08:06:53.872Z,20.44
2019-02-16T08:07:53.778Z,20.44
2019-02-16T08:08:53.776Z,20.30
2019-02-16T08:09:53.926Z,20.36
2019-02-16T08:10:53.812Z,20.36
2019-02-16T08:11:53.983Z,20.32
2019-02-16T08:12:53.958Z,20.27
2019-02-16T08:13:53.987Z,20.32
2019-02-16T08:14:53.879Z,20.36
2019-02-16T08:15:53.888Z,20.37
2019-02-16T08:16:54.227Z,20.42
2019-02-16T08:17:53.924Z,20.44
2019-02-16T08:18:53.943Z,20.42
2019-02-16T08:19:53.940Z,20.42
2019-02-16T08:20:54.084Z,20.36
2019-02-16T08:21:54.116Z,20.39
2019-02-16T08:22:53.992Z,20.39
2019-02-16T08:23:54.001Z,20.52
2019-02-16T08:24:54.008Z,20.39
2019-02-16T08:25:54.144Z,20.33
2019-02-16T08:26:54.148Z,20.26
2019-02-16T08:27:54.177Z,20.29
2019-02-16T08:28:54.090Z,20.26
2019-02-16T08:29:54.196Z,20.32
2019-02-16T08:30:54.212Z,20.29
2019-02-16T08:31:54.335Z,20.22
2019-02-16T08:32:54.248Z,20.36
2019-02-16T08:33:54.134Z,20.39
2019-02-16T08:34:54.145Z,20.30
2019-02-16T08:35:54.176Z,20.39
2019-02-16T08:36:54.395Z,20.36
2019-02-16T08:37:54.198Z,20.33
2019-02-16T08:38:54.325Z,20.24
2019-02-16T08:39:54.221Z,20.30
2019-02-16T08:40:54.287Z,20.32
2019-02-16T08:41:54.375Z,20.21
2019-02-16T08:42:54.477Z,20.15
2019-02-16T08:43:54.278Z,20.19
2019-02-16T08:44:54.308Z,20.18
2019-02-16T08:45:54.431Z,20.14
2019-02-16T08:46:54.316Z,20.29
2019-02-16T08:47:54.549Z,20.17
2019-02-16T08:48:54.475Z,20.24
2019-02-16T08:49:54.377Z,20.14
2019-02-16T08:50:54.392Z,20.15
2019-02-16T08:51:54.395Z,20.10
2019-02-16T08:52:54.620Z,20.19
2019-02-16T08:53:54.426Z,20.24
2019-02-16T08:54:54.429Z,20.24
2019-02-16T08:55:54.568Z,20.17
2019-02-16T08:56:54.463Z,20.14
2019-02-16T08:57:54.566Z,20.19
2019-02-16T08:58:54.490Z,20.18
2019-02-16T08:59:54.622Z,20.17
2019-02-16T09:00:54.643Z,20.18
2019-02-16T09:01:54.603Z,20.18
2019-02-16T09:02:54.664Z,20.11
2019-02-16T09:03:54.652Z,20.14
2019-02-16T09:04:54.572Z,20.14
2019-02-16T09:05:54.700Z,20.12
2019-02-16T09:06:54.613Z,20.11
2019-02-16T09:07:54.625Z,20.19
2019-02-16T09:08:54.738Z,20.14
2019-02-16T09:09:54.643Z,20.15
2019-02-16T09:10:54.783Z,20.18
2019-02-16T09:11:54.792Z,20.08
2019-02-16T09:12:54.797Z,20.15
2019-02-16T09:13:54.973Z,20.11
2019-02-16T09:14:54.743Z,20.17
2019-02-16T09:15:54.849Z,20.11
2019-02-16T09:16:54.862Z,20.17
2019-02-16T09:17:54.878Z,20.29
2019-02-16T09:18:54.989Z,20.14
2019-02-16T09:19:54.903Z,20.10
2019-02-16T09:20:54.918Z,20.29
2019-02-16T09:21:54.808Z,20.22
2019-02-16T09:22:54.824Z,20.32
2019-02-16T09:23:59.035Z,20.27
2019-02-16T09:24:54.836Z,20.29
2019-02-16T09:25:54.880Z,20.27
2019-02-16T09:26:54.878Z,20.30
2019-02-16T09:27:54.907Z,20.27
2019-02-16T09:28:55.055Z,20.29
2019-02-16T09:29:55.031Z,20.29
2019-02-16T09:30:54.927Z,20.33
2019-02-16T09:31:54.947Z,20.36
2019-02-16T09:32:54.955Z,20.33
2019-02-16T09:33:55.139Z,20.33
2019-02-16T09:34:54.987Z,20.40
2019-02-16T09:35:54.997Z,20.44
2019-02-16T09:36:55.128Z,20.33
2019-02-16T09:37:55.140Z,20.33
2019-02-16T09:38:55.209Z,20.42
2019-02-16T09:39:55.171Z,20.34
2019-02-16T09:40:55.247Z,20.44
2019-02-16T09:41:55.080Z,20.39
2019-02-16T09:42:55.213Z,20.40
2019-02-16T09:43:55.235Z,20.46
2019-02-16T09:44:55.147Z,20.44
2019-02-16T09:45:55.184Z,20.46
2019-02-16T09:46:55.271Z,20.44
2019-02-16T09:47:55.297Z,20.44
2019-02-16T09:48:55.179Z,20.44
2019-02-16T09:49:55.199Z,20.40
2019-02-16T09:50:55.435Z,20.37
2019-02-16T09:51:55.218Z,20.44
2019-02-16T09:52:55.237Z,20.37
2019-02-16T09:53:55.367Z,20.40
2019-02-16T09:54:55.382Z,20.40
2019-02-16T09:55:55.377Z,20.44
2019-02-16T09:56:55.290Z,20.42
2019-02-16T09:57:55.313Z,20.48
2019-02-16T09:58:55.329Z,20.42
2019-02-16T09:59:55.453Z,20.37
2019-02-16T10:00:55.561Z,20.46
2019-02-16T10:01:55.366Z,20.46
2019-02-16T10:02:55.384Z,20.42
2019-02-16T10:03:55.382Z,20.30
2019-02-16T10:04:55.465Z,20.40
2019-02-16T10:05:55.519Z,20.46
2019-02-16T10:06:55.455Z,20.46
2019-02-16T10:07:55.573Z,20.36
2019-02-16T10:08:55.588Z,20.37
2019-02-16T10:09:55.475Z,20.39
2019-02-16T10:10:55.715Z,20.40
2019-02-16T10:11:55.639Z,20.42
2019-02-16T10:12:55.641Z,20.40
2019-02-16T10:13:55.545Z,20.42
2019-02-16T10:14:55.663Z,20.42
2019-02-16T10:15:55.738Z,20.44
2019-02-16T10:16:55.575Z,20.48
2019-02-16T10:17:55.815Z,20.52
2019-02-16T10:18:55.596Z,20.64
2019-02-16T10:19:55.634Z,20.60
2019-02-16T10:20:55.754Z,20.60
2019-02-16T10:21:55.773Z,20.66
2019-02-16T10:22:55.773Z,20.63
2019-02-16T10:23:55.806Z,20.71
2019-02-16T10:24:55.690Z,20.71
2019-02-16T10:25:55.820Z,20.63
2019-02-16T10:26:55.718Z,20.75
2019-02-16T10:27:56.014Z,20.74
2019-02-16T10:28:55.874Z,20.73
2019-02-16T10:29:55.879Z,20.77
2019-02-16T10:30:55.910Z,20.75
2019-02-16T10:31:55.810Z,20.80
2019-02-16T10:32:55.907Z,20.82
2019-02-16T10:33:55.830Z,20.89
2019-02-16T10:34:55.877Z,20.85
2019-02-16T10:35:55.984Z,20.85
2019-02-16T10:36:55.993Z,20.83
2019-02-16T10:37:56.103Z,20.85
2019-02-16T10:38:56.628Z,20.82
2019-02-16T10:39:55.949Z,20.88
2019-02-16T10:40:56.037Z,20.93
2019-02-16T10:41:55.939Z,20.93
2019-02-16T10:42:56.177Z,20.93
2019-02-16T10:43:56.003Z,20.95
2019-02-16T10:44:56.093Z,20.85
2019-02-16T10:45:55.989Z,20.92
2019-02-16T10:46:56.125Z,20.92
2019-02-16T10:47:56.070Z,20.92
2019-02-16T10:48:56.049Z,20.89
2019-02-16T10:49:56.052Z,20.93
2019-02-16T10:50:56.073Z,20.93
2019-02-16T10:51:56.355Z,20.98
2019-02-16T10:52:56.224Z,20.92
2019-02-16T10:53:56.223Z,21.04
2019-02-16T10:54:56.253Z,21.08
2019-02-16T10:55:56.153Z,21.08
2019-02-16T10:56:56.226Z,21.07
2019-02-16T10:57:56.151Z,21.04
2019-02-16T10:58:56.175Z,21.01
2019-02-16T10:59:56.191Z,21.05
2019-02-16T11:00:56.210Z,21.11
2019-02-16T11:01:56.286Z,21.10
2019-02-16T11:02:56.367Z,21.03
2019-02-16T11:03:56.374Z,21.10
2019-02-16T11:04:56.905Z,21.15
2019-02-16T11:05:56.412Z,21.19
2019-02-16T11:06:56.423Z,21.23
2019-02-16T11:07:56.444Z,21.28
2019-02-16T11:08:56.447Z,21.26
2019-02-16T11:09:56.336Z,21.15
2019-02-16T11:10:56.339Z,21.20
2019-02-16T11:11:56.378Z,21.23
2019-02-16T11:12:56.616Z,21.17
2019-02-16T11:13:56.406Z,21.32
2019-02-16T11:14:56.534Z,21.15
2019-02-16T11:15:56.428Z,21.17
2019-02-16T11:16:56.575Z,21.17
2019-02-16T11:17:56.624Z,21.20
2019-02-16T11:18:56.605Z,21.20
2019-02-16T11:19:56.620Z,21.22
2019-02-16T11:20:56.506Z,21.35
2019-02-16T11:21:56.636Z,21.20
2019-02-16T11:22:56.606Z,21.15
2019-02-16T11:23:56.677Z,21.11
2019-02-16T11:24:56.558Z,21.05
2019-02-16T11:25:56.692Z,21.05
2019-02-16T11:26:56.599Z,21.11
2019-02-16T11:27:56.721Z,21.10
2019-02-16T11:28:56.739Z,21.08
2019-02-16T11:29:56.643Z,21.10
2019-02-16T11:30:56.769Z,21.20
2019-02-16T11:31:56.797Z,21.14
2019-02-16T11:32:56.782Z,21.28
2019-02-16T11:33:56.715Z,21.32
2019-02-16T11:34:56.714Z,21.43
2019-02-16T11:35:56.770Z,21.47
2019-02-16T11:36:56.857Z,21.48
2019-02-16T11:37:56.852Z,21.58
2019-02-16T11:38:56.768Z,21.53
2019-02-16T11:39:56.914Z,21.41
2019-02-16T11:40:56.921Z,21.33
2019-02-16T11:41:56.942Z,21.40
2019-02-16T11:42:56.897Z,21.37
2019-02-16T11:43:56.844Z,21.45
2019-02-16T11:44:56.987Z,21.56
2019-02-16T11:45:56.873Z,21.45
2019-02-16T11:46:57.022Z,21.40
2019-02-16T11:47:57.180Z,21.51
2019-02-16T11:48:57.051Z,21.54
2019-02-16T11:49:56.950Z,21.53
2019-02-16T11:50:56.972Z,21.58
2019-02-16T11:51:57.083Z,21.56
2019-02-16T11:52:57.137Z,21.41
2019-02-16T11:53:57.007Z,21.32
2019-02-16T11:54:57.144Z,21.45
2019-02-16T11:55:57.148Z,21.60
2019-02-16T11:56:57.043Z,21.59
2019-02-16T11:57:57.103Z,21.58
2019-02-16T11:58:57.073Z,21.60
2019-02-16T11:59:57.085Z,21.62
2019-02-16T12:00:57.097Z,21.66
2019-02-16T12:01:57.246Z,21.75
2019-02-16T12:02:57.311Z,21.78
2019-02-16T12:03:57.300Z,21.81
2019-02-16T12:04:57.167Z,21.88
2019-02-16T12:05:57.297Z,21.88
2019-02-16T12:06:57.306Z,21.84
2019-02-16T12:07:57.333Z,21.85
2019-02-16T12:08:57.371Z,21.81
2019-02-16T12:09:57.247Z,22.03
2019-02-16T12:10:57.368Z,21.94
2019-02-16T12:11:57.397Z,21.94
2019-02-16T12:12:57.294Z,22.00
2019-02-16T12:13:57.475Z,21.99
2019-02-16T12:14:57.312Z,22.15
2019-02-16T12:15:57.351Z,22.08
2019-02-16T12:16:57.462Z,22.06
2019-02-16T12:17:57.380Z,22.10
2019-02-16T12:18:57.453Z,22.03
2019-02-16T12:19:57.509Z,22.08
2019-02-16T12:20:57.412Z,22.15
2019-02-16T12:21:57.443Z,22.22
2019-02-16T12:22:57.451Z,22.33
2019-02-16T12:23:57.674Z,22.37
2019-02-16T12:25:05.452Z,22.31
2019-02-16T12:25:57.498Z,22.23
2019-02-16T12:26:57.507Z,22.18
2019-02-16T12:27:57.519Z,22.19
2019-02-16T12:28:57.687Z,22.06
2019-02-16T12:29:57.560Z,21.88
2019-02-16T12:30:57.573Z,21.84
2019-02-16T12:31:57.713Z,21.94
2019-02-16T12:32:57.723Z,21.96
2019-02-16T12:33:57.890Z,22.04
2019-02-16T12:34:57.650Z,22.10
2019-02-16T12:35:57.649Z,22.18
2019-02-16T12:36:57.781Z,22.37
2019-02-16T12:37:57.802Z,22.62
2019-02-16T12:39:04.627Z,22.91
2019-02-16T12:39:57.930Z,23.08
2019-02-16T12:40:57.731Z,23.44
2019-02-16T12:41:57.870Z,23.71
2019-02-16T12:42:57.890Z,24.16
2019-02-16T12:43:57.901Z,24.37
2019-02-16T12:44:58.058Z,24.43
2019-02-16T12:45:57.928Z,24.32
2019-02-16T12:46:57.957Z,24.00
2019-02-16T12:47:57.975Z,23.99
2019-02-16T12:48:57.987Z,24.26
2019-02-16T12:49:58.094Z,24.28
2019-02-16T12:50:59.495Z,24.31
2019-02-16T12:51:57.919Z,24.25
2019-02-16T12:52:58.059Z,23.82
2019-02-16T12:53:58.067Z,23.84